createdAt,value
2019-04-04T00:01:55.894Z,83.20
2019-04-04T00:04:24.522Z,83.36
2019-04-04T00:06:53.412Z,83.59
2019-04-04T00:09:21.992Z,83.90
2019-04-04T00:11:50.530Z,84.03
2019-04-04T00:14:19.472Z,84.09
2019-04-04T00:16:48.835Z,84.39
2019-04-04T00:19:18.178Z,84.54
2019-04-04T00:21:46.770Z,85.10
2019-04-04T00:24:15.443Z,84.65
2019-04-04T00:26:44.030Z,84.61
2019-04-04T00:29:13.017Z,84.60
2019-04-04T00:31:41.812Z,84.70
2019-04-04T00:34:10.348Z,84.63
2019-04-04T00:36:38.903Z,84.00
2019-04-04T00:39:09.537Z,83.98
2019-04-04T00:41:38.709Z,84.02
2019-04-04T00:44:07.905Z,84.29
2019-04-04T00:46:36.455Z,84.31
2019-04-04T00:49:05.458Z,84.78
2019-04-04T00:51:34.276Z,84.83
2019-04-04T00:54:03.264Z,84.95
2019-04-04T00:56:32.176Z,85.42
2019-04-04T00:59:00.964Z,85.51
2019-04-04T01:01:29.475Z,85.60
2019-04-04T01:04:00.344Z,85.77
2019-04-04T01:06:29.179Z,85.77
2019-04-04T01:08:57.763Z,85.63
2019-04-04T01:11:26.319Z,85.67
2019-04-04T01:13:57.561Z,85.80
2019-04-04T01:16:25.337Z,85.74
2019-04-04T01:18:53.921Z,86.05
2019-04-04T01:21:22.916Z,85.87
2019-04-04T01:23:51.615Z,86.04
2019-04-04T01:26:22.538Z,85.96
2019-04-04T01:28:51.220Z,86.11
2019-04-04T01:31:20.006Z,86.08
2019-04-04T01:33:50.836Z,86.10
2019-04-04T01:36:19.337Z,86.16
2019-04-04T01:38:47.911Z,86.03
2019-04-04T01:41:16.808Z,86.12
2019-04-04T01:43:45.490Z,86.11
2019-04-04T01:46:15.283Z,86.11
2019-04-04T01:48:44.400Z,86.12
2019-04-04T01:51:13.389Z,86.12
2019-04-04T01:53:41.978Z,86.12
2019-04-04T01:56:10.555Z,86.32
2019-04-04T01:58:41.687Z,86.44
2019-04-04T02:01:09.668Z,86.49
2019-04-04T02:03:38.265Z,86.65
2019-04-04T02:06:07.146Z,86.72
2019-04-04T02:08:36.153Z,86.55
2019-04-04T02:11:05.534Z,86.45
2019-04-04T02:13:34.942Z,86.62
2019-04-04T02:16:03.530Z,86.50
2019-04-04T02:18:32.534Z,86.58
2019-04-04T02:21:01.217Z,86.63
2019-04-04T02:23:31.715Z,86.77
2019-04-04T02:26:00.339Z,86.80
2019-04-04T02:28:28.911Z,86.74
2019-04-04T02:30:57.713Z,86.91
2019-04-04T02:33:32.006Z,86.94
2019-04-04T02:35:57.936Z,86.94
2019-04-04T02:38:28.107Z,87.00
2019-04-04T02:40:56.948Z,87.03
2019-04-04T02:43:28.371Z,87.20
2019-04-04T02:45:55.851Z,87.40
2019-04-04T02:48:24.798Z,87.42
2019-04-04T02:50:53.839Z,87.61
2019-04-04T02:53:22.547Z,87.75
2019-04-04T02:55:51.523Z,87.79
2019-04-04T02:58:20.541Z,87.84
2019-04-04T03:00:49.235Z,87.85
2019-04-04T03:03:17.828Z,87.96
2019-04-04T03:05:50.752Z,87.92
2019-04-04T03:08:17.105Z,87.83
2019-04-04T03:10:48.953Z,87.76
2019-04-04T03:13:16.655Z,87.69
2019-04-04T03:15:48.171Z,87.74
2019-04-04T03:18:15.643Z,87.87
2019-04-04T03:20:44.319Z,87.91
2019-04-04T03:23:13.227Z,87.89
2019-04-04T03:25:41.905Z,87.86
2019-04-04T03:28:10.481Z,87.96
2019-04-04T03:30:39.025Z,88.04
2019-04-04T03:33:07.881Z,88.14
2019-04-04T03:35:36.539Z,88.23
2019-04-04T03:38:05.127Z,88.24
2019-04-04T03:40:33.917Z,88.22
2019-04-04T03:43:03.008Z,88.20
2019-04-04T03:45:31.693Z,88.12
2019-04-04T03:48:00.284Z,88.07
2019-04-04T03:50:30.582Z,88.17
2019-04-04T03:52:59.699Z,88.29
2019-04-04T03:55:28.680Z,88.42
2019-04-04T03:57:57.481Z,88.48
2019-04-04T04:00:32.009Z,88.51
2019-04-04T04:03:00.593Z,88.53
2019-04-04T04:05:34.549Z,88.57
2019-04-04T04:08:01.650Z,88.57
2019-04-04T04:10:33.350Z,88.54
2019-04-04T04:13:00.573Z,88.60
2019-04-04T04:15:30.690Z,88.70
2019-04-04T04:17:59.458Z,88.89
2019-04-04T04:20:28.047Z,89.08
2019-04-04T04:22:56.637Z,89.29
2019-04-04T04:25:25.172Z,89.36
2019-04-04T04:27:54.208Z,89.44
2019-04-04T04:30:23.200Z,89.43
2019-04-04T04:32:55.837Z,89.42
2019-04-04T04:35:22.312Z,89.42
2019-04-04T04:37:53.474Z,89.49
2019-04-04T04:40:21.436Z,89.51
2019-04-04T04:42:50.728Z,89.53
2019-04-04T04:45:19.260Z,89.42
2019-04-04T04:47:47.895Z,89.34
2019-04-04T04:50:16.580Z,89.29
2019-04-04T04:52:47.426Z,89.27
2019-04-04T04:55:16.803Z,89.28
2019-04-04T04:57:45.617Z,89.27
2019-04-04T05:00:16.121Z,89.19
2019-04-04T05:02:44.541Z,89.10
2019-04-04T05:05:13.718Z,89.11
2019-04-04T05:07:44.653Z,89.13
2019-04-04T05:10:15.073Z,89.30
2019-04-04T05:12:44.313Z,89.20
2019-04-04T05:15:13.276Z,89.13
2019-04-04T05:17:45.135Z,89.10
2019-04-04T05:20:14.344Z,89.06
2019-04-04T05:22:43.220Z,89.03
2019-04-04T05:25:11.907Z,89.02
2019-04-04T05:27:40.603Z,89.04
2019-04-04T05:30:09.794Z,88.91
2019-04-04T05:32:38.379Z,88.94
2019-04-04T05:35:07.539Z,88.88
2019-04-04T05:37:38.216Z,88.84
2019-04-04T05:40:09.455Z,88.73
2019-04-04T05:42:38.155Z,88.58
2019-04-04T05:45:07.752Z,88.49
2019-04-04T05:47:36.436Z,88.53
2019-04-04T05:50:06.657Z,88.43
2019-04-04T05:52:35.341Z,88.43
2019-04-04T05:55:10.067Z,88.37
2019-04-04T05:57:37.000Z,88.26
2019-04-04T06:00:08.063Z,88.27
2019-04-04T06:02:36.790Z,88.10
2019-04-04T06:05:06.813Z,88.07
2019-04-04T06:07:36.480Z,88.08
2019-04-04T06:10:07.509Z,88.05
2019-04-04T06:12:37.669Z,88.07
2019-04-04T06:15:07.213Z,87.98
2019-04-04T06:17:38.799Z,87.86
2019-04-04T06:20:08.018Z,87.90
2019-04-04T06:22:36.675Z,87.77
2019-04-04T06:25:06.952Z,87.73
2019-04-04T06:27:39.876Z,87.71
2019-04-04T06:30:08.008Z,87.61
2019-04-04T06:32:38.866Z,87.57
2019-04-04T06:35:07.385Z,87.38
2019-04-04T06:37:38.428Z,87.40
2019-04-04T06:40:08.011Z,87.16
2019-04-04T06:42:37.164Z,87.02
2019-04-04T06:45:07.452Z,86.98
2019-04-04T06:47:36.176Z,86.62
2019-04-04T06:50:08.201Z,86.83
2019-04-04T06:52:36.722Z,86.43
2019-04-04T06:55:06.702Z,86.05
2019-04-04T06:57:36.589Z,86.20
2019-04-04T07:00:08.662Z,86.37
2019-04-04T07:02:37.274Z,86.29
2019-04-04T07:05:10.744Z,86.02
2019-04-04T07:07:43.116Z,85.98
2019-04-04T07:10:10.495Z,85.68
2019-04-04T07:12:39.176Z,85.27
2019-04-04T07:15:11.216Z,85.31
2019-04-04T07:17:40.388Z,84.76
2019-04-04T07:20:10.375Z,84.62
2019-04-04T07:22:39.096Z,83.27
2019-04-04T07:25:07.900Z,83.81
2019-04-04T07:27:36.483Z,83.81
2019-04-04T07:30:07.257Z,83.68
2019-04-04T07:32:35.831Z,83.71
2019-04-04T07:35:06.956Z,83.58
2019-04-04T07:37:35.648Z,83.35
2019-04-04T07:40:06.111Z,82.65
2019-04-04T07:42:34.677Z,82.80
2019-04-04T07:45:04.790Z,82.65
2019-04-04T07:47:33.512Z,82.46
2019-04-04T07:50:02.100Z,82.12
2019-04-04T07:52:32.747Z,80.74
2019-04-04T07:55:01.005Z,81.08
2019-04-04T07:57:30.307Z,80.29
2019-04-04T07:59:59.091Z,80.72
2019-04-04T08:02:27.682Z,80.14
2019-04-04T08:04:56.297Z,79.89
2019-04-04T08:07:24.896Z,79.60
2019-04-04T08:09:53.819Z,79.25
2019-04-04T08:12:22.477Z,79.22
2019-04-04T08:14:51.060Z,78.80
2019-04-04T08:17:19.722Z,78.15
2019-04-04T08:19:59.173Z,77.96
2019-04-04T08:22:19.213Z,77.39
2019-04-04T08:24:47.886Z,77.27
2019-04-04T08:27:16.599Z,77.20
2019-04-04T08:29:45.187Z,77.14
2019-04-04T08:32:15.202Z,76.86
2019-04-04T08:34:43.811Z,76.47
2019-04-04T08:37:12.473Z,76.47
2019-04-04T08:39:41.163Z,76.17
2019-04-04T08:42:09.881Z,76.27
2019-04-04T08:44:38.439Z,75.90
2019-04-04T08:47:07.034Z,76.00
2019-04-04T08:49:35.774Z,76.04
2019-04-04T08:52:16.081Z,76.10
2019-04-04T08:54:35.335Z,76.29
2019-04-04T08:57:03.933Z,76.34
2019-04-04T08:59:32.500Z,76.15
2019-04-04T09:02:01.107Z,76.29
2019-04-04T09:04:29.691Z,76.01
2019-04-04T09:06:58.259Z,76.17
2019-04-04T09:09:26.886Z,76.42
2019-04-04T09:11:55.667Z,76.60
2019-04-04T09:14:24.550Z,76.82
2019-04-04T09:16:53.082Z,76.90
2019-04-04T09:19:21.862Z,76.24
2019-04-04T09:21:50.489Z,76.21
2019-04-04T09:24:19.274Z,76.33
2019-04-04T09:26:48.208Z,76.52
2019-04-04T09:29:17.061Z,76.75
2019-04-04T09:31:45.599Z,76.97
2019-04-04T09:34:14.644Z,77.12
2019-04-04T09:36:43.317Z,76.90
2019-04-04T09:39:12.007Z,76.46
2019-04-04T09:41:40.697Z,76.29
2019-04-04T09:44:09.487Z,76.05
2019-04-04T09:46:38.024Z,76.22
2019-04-04T09:49:06.598Z,76.23
2019-04-04T09:51:35.316Z,75.90
2019-04-04T09:54:03.925Z,75.71
2019-04-04T09:56:32.728Z,75.19
2019-04-04T09:59:01.428Z,75.39
2019-04-04T10:01:30.024Z,75.42
2019-04-04T10:03:58.572Z,75.71
2019-04-04T10:06:27.114Z,75.55
2019-04-04T10:08:55.844Z,75.76
2019-04-04T10:11:24.531Z,75.47
2019-04-04T10:13:53.106Z,75.30
2019-04-04T10:16:21.629Z,75.26
2019-04-04T10:18:50.427Z,75.34
2019-04-04T10:21:18.988Z,75.14
2019-04-04T10:23:47.713Z,75.27
2019-04-04T10:26:16.585Z,75.16
2019-04-04T10:28:45.176Z,74.94
2019-04-04T10:31:13.854Z,74.99
2019-04-04T10:33:43.014Z,74.82
2019-04-04T10:36:11.575Z,74.93
2019-04-04T10:38:40.117Z,74.75
2019-04-04T10:41:08.829Z,74.74
2019-04-04T10:43:37.413Z,74.54
2019-04-04T10:46:06.104Z,74.39
2019-04-04T10:48:35.013Z,74.02
2019-04-04T10:51:03.785Z,73.70
2019-04-04T10:53:32.321Z,73.83
2019-04-04T10:56:01.063Z,73.84
2019-04-04T10:58:31.058Z,74.19
2019-04-04T11:00:59.815Z,74.19
2019-04-04T11:03:28.397Z,74.25
2019-04-04T11:05:56.977Z,74.05
2019-04-04T11:08:25.583Z,74.07
2019-04-04T11:10:54.159Z,73.78
2019-04-04T11:13:32.939Z,73.55
2019-04-04T11:15:53.184Z,72.77
2019-04-04T11:18:21.864Z,72.78
2019-04-04T11:20:50.662Z,72.93
2019-04-04T11:23:19.243Z,72.73
2019-04-04T11:25:48.445Z,72.35
2019-04-04T11:28:17.146Z,72.48
2019-04-04T11:30:45.765Z,72.29
2019-04-04T11:33:15.129Z,72.31
2019-04-04T11:35:43.820Z,72.25
2019-04-04T11:38:12.505Z,72.31
2019-04-04T11:40:41.195Z,72.25
2019-04-04T11:43:10.086Z,72.32
2019-04-04T11:45:38.637Z,72.19
2019-04-04T11:48:07.250Z,72.11
2019-04-04T11:50:35.851Z,72.28
2019-04-04T11:53:04.826Z,71.98
2019-04-04T11:55:34.252Z,71.93
2019-04-04T11:58:03.026Z,72.27
2019-04-04T12:00:33.251Z,72.39
2019-04-04T12:03:02.063Z,72.51
2019-04-04T12:05:30.611Z,72.44
2019-04-04T12:07:59.498Z,72.38
2019-04-04T12:10:28.184Z,72.53
2019-04-04T12:12:58.563Z,72.60
2019-04-04T12:15:27.197Z,72.50
2019-04-04T12:17:55.939Z,72.53
2019-04-04T12:20:24.579Z,72.56
2019-04-04T12:22:53.115Z,72.58
2019-04-04T12:25:21.676Z,72.61
2019-04-04T12:27:50.434Z,72.51
2019-04-04T12:30:20.675Z,72.39
2019-04-04T12:32:49.953Z,72.46
2019-04-04T12:35:18.633Z,72.55
2019-04-04T12:37:47.236Z,72.50
2019-04-04T12:40:20.748Z,72.52
2019-04-04T12:42:46.714Z,72.51
2019-04-04T12:45:15.706Z,72.57
2019-04-04T12:47:44.626Z,72.49
2019-04-04T12:50:15.161Z,72.50
2019-04-04T12:52:43.856Z,72.41
2019-04-04T12:55:20.208Z,72.23
2019-04-04T12:57:48.767Z,72.18
2019-04-04T13:00:17.681Z,72.19
2019-04-04T13:02:46.883Z,72.18
2019-04-04T13:05:16.675Z,72.16
2019-04-04T13:07:45.274Z,72.04
2019-04-04T13:10:14.679Z,72.08
2019-04-04T13:12:43.638Z,71.84
2019-04-04T13:15:12.977Z,71.79
2019-04-04T13:17:41.657Z,71.69
2019-04-04T13:20:10.776Z,71.58
2019-04-04T13:22:39.496Z,71.54
2019-04-04T13:25:09.467Z,71.55
2019-04-04T13:27:38.282Z,71.43
2019-04-04T13:30:09.908Z,71.32
2019-04-04T13:32:38.998Z,71.17
2019-04-04T13:35:07.927Z,71.05
2019-04-04T13:37:36.581Z,70.96
2019-04-04T13:40:07.250Z,70.87
2019-04-04T13:42:35.896Z,70.72
2019-04-04T13:45:06.528Z,70.53
2019-04-04T13:47:38.147Z,70.34
2019-04-04T13:50:07.466Z,70.31
2019-04-04T13:52:37.401Z,69.85
2019-04-04T13:55:07.312Z,70.16
2019-04-04T13:57:39.430Z,70.36
2019-04-04T14:00:09.293Z,70.47
2019-04-04T14:02:38.297Z,70.48
2019-04-04T14:05:10.566Z,70.28
2019-04-04T14:07:38.424Z,70.31
2019-04-04T14:10:07.826Z,70.29
2019-04-04T14:12:36.450Z,70.02
2019-04-04T14:15:08.680Z,69.81
2019-04-04T14:17:37.305Z,69.86
2019-04-04T14:20:09.544Z,69.43
2019-04-04T14:22:38.222Z,68.24
2019-04-04T14:25:07.574Z,66.92
2019-04-04T14:27:36.134Z,65.88
2019-04-04T14:30:09.320Z,64.92
2019-04-04T14:32:37.878Z,65.26
2019-04-04T14:35:09.022Z,64.65
2019-04-04T14:37:37.718Z,64.21
2019-04-04T14:40:11.720Z,64.03
2019-04-04T14:42:40.406Z,64.10
2019-04-04T14:45:09.575Z,63.07
2019-04-04T14:47:38.298Z,61.77
2019-04-04T14:50:08.977Z,61.71
2019-04-04T14:52:39.354Z,61.55
2019-04-04T14:55:08.228Z,61.78
2019-04-04T14:57:36.838Z,62.13
2019-04-04T15:00:11.073Z,61.60
2019-04-04T15:02:39.726Z,61.91
2019-04-04T15:05:08.923Z,61.90
2019-04-04T15:07:37.625Z,62.24
2019-04-04T15:10:06.700Z,62.17
2019-04-04T15:12:35.533Z,62.03
2019-04-04T15:15:05.311Z,61.67
2019-04-04T15:17:34.106Z,60.91
2019-04-04T15:20:03.013Z,60.38
2019-04-04T15:22:32.125Z,60.37
2019-04-04T15:25:00.981Z,60.43
2019-04-04T15:27:29.950Z,60.25
2019-04-04T15:29:58.972Z,60.89
2019-04-04T15:32:27.887Z,61.10
2019-04-04T15:34:56.538Z,61.51
2019-04-04T15:37:25.200Z,61.78
2019-04-04T15:39:53.910Z,61.92
2019-04-04T15:42:22.520Z,62.26
2019-04-04T15:44:51.181Z,62.90
2019-04-04T15:47:19.868Z,63.40
2019-04-04T15:49:48.453Z,63.85
2019-04-04T15:52:16.987Z,64.15
2019-04-04T15:54:45.572Z,64.36
2019-04-04T15:57:14.209Z,64.66
2019-04-04T15:59:42.787Z,65.00
2019-04-04T16:02:12.247Z,65.39
2019-04-04T16:04:40.994Z,65.90
2019-04-04T16:07:10.201Z,66.33
2019-04-04T16:09:38.919Z,66.66
2019-04-04T16:12:07.499Z,67.19
2019-04-04T16:14:36.132Z,67.28
2019-04-04T16:17:04.851Z,67.26
2019-04-04T16:19:33.510Z,67.34
2019-04-04T16:22:02.146Z,67.44
2019-04-04T16:24:32.002Z,67.56
2019-04-04T16:27:00.703Z,67.88
2019-04-04T16:29:29.483Z,68.17
2019-04-04T16:31:58.198Z,68.87
2019-04-04T16:34:26.747Z,69.50
2019-04-04T16:36:55.437Z,70.70
2019-04-04T16:39:24.118Z,70.83
2019-04-04T16:42:01.981Z,71.48
2019-04-04T16:44:24.469Z,71.89
2019-04-04T16:46:54.684Z,72.53
2019-04-04T16:49:23.371Z,72.55
2019-04-04T16:51:52.120Z,73.24
2019-04-04T16:54:20.727Z,73.70
2019-04-04T16:56:49.478Z,74.13
2019-04-04T16:59:18.115Z,74.91
2019-04-04T17:01:46.860Z,74.58
2019-04-04T17:04:15.486Z,75.01
2019-04-04T17:06:44.478Z,75.35
2019-04-04T17:09:13.380Z,75.54
2019-04-04T17:11:42.780Z,75.75
2019-04-04T17:14:11.563Z,75.88
2019-04-04T17:16:40.275Z,76.36
2019-04-04T17:19:09.043Z,76.66
2019-04-04T17:21:45.866Z,77.43
2019-04-04T17:24:14.501Z,77.32
2019-04-04T17:26:43.289Z,77.71
2019-04-04T17:29:12.179Z,78.70
2019-04-04T17:31:41.126Z,78.67
2019-04-04T17:34:09.939Z,78.87
2019-04-04T17:36:39.524Z,79.34
2019-04-04T17:39:09.139Z,79.44
2019-04-04T17:41:38.145Z,79.69
2019-04-04T17:44:09.110Z,80.17
2019-04-04T17:46:39.244Z,80.27
2019-04-04T17:49:07.809Z,80.69
2019-04-04T17:51:36.626Z,81.82
2019-04-04T17:54:05.996Z,81.32
2019-04-04T17:56:35.069Z,81.47
2019-04-04T17:59:03.648Z,81.77
2019-04-04T18:01:34.360Z,81.63
2019-04-04T18:04:02.800Z,82.16
2019-04-04T18:06:31.598Z,82.63
2019-04-04T18:09:00.143Z,82.55
2019-04-04T18:11:28.864Z,82.48
2019-04-04T18:13:58.677Z,82.67
2019-04-04T18:16:27.369Z,83.02
2019-04-04T18:18:55.897Z,83.28
2019-04-04T18:21:24.767Z,83.44
2019-04-04T18:23:53.313Z,83.34
2019-04-04T18:26:22.204Z,83.43
2019-04-04T18:28:50.776Z,83.62
2019-04-04T18:31:19.394Z,83.60
2019-04-04T18:33:48.258Z,83.67
2019-04-04T18:36:17.294Z,83.75
2019-04-04T18:38:46.083Z,83.90
2019-04-04T18:41:14.630Z,84.10
2019-04-04T18:43:43.584Z,84.49
2019-04-04T18:46:12.240Z,84.37
2019-04-04T18:48:40.904Z,84.75
2019-04-04T18:51:09.591Z,84.63
2019-04-04T18:53:38.185Z,84.74
2019-04-04T18:56:06.755Z,84.43
2019-04-04T18:58:35.445Z,84.69
2019-04-04T19:01:04.353Z,84.69
2019-04-04T19:03:32.909Z,84.75
2019-04-04T19:06:01.646Z,84.69
2019-04-04T19:08:30.597Z,84.80
2019-04-04T19:10:59.160Z,84.84
2019-04-04T19:13:27.801Z,84.82
2019-04-04T19:15:56.648Z,84.97
2019-04-04T19:18:25.248Z,84.92
2019-04-04T19:20:54.026Z,85.08
2019-04-04T19:23:22.580Z,85.41
2019-04-04T19:25:51.295Z,85.27
2019-04-04T19:28:20.396Z,85.27
2019-04-04T19:30:49.083Z,85.35
2019-04-04T19:33:17.756Z,85.41
2019-04-04T19:35:46.569Z,86.12
2019-04-04T19:38:15.446Z,85.77
2019-04-04T19:40:44.444Z,86.25
2019-04-04T19:43:18.317Z,86.10
2019-04-04T19:45:43.419Z,86.38
2019-04-04T19:48:12.016Z,86.26
2019-04-04T19:50:40.581Z,86.35
2019-04-04T19:53:09.195Z,86.79
2019-04-04T19:55:39.206Z,86.82
2019-04-04T19:58:08.169Z,86.92
2019-04-04T20:00:36.762Z,86.92
2019-04-04T20:03:06.330Z,87.08
2019-04-04T20:05:35.114Z,87.02
2019-04-04T20:08:03.695Z,87.19
2019-04-04T20:10:32.398Z,87.48
2019-04-04T20:13:01.155Z,87.06
2019-04-04T20:15:29.743Z,87.37
2019-04-04T20:17:58.315Z,87.35
2019-04-04T20:20:27.109Z,87.26
2019-04-04T20:22:55.895Z,87.35
2019-04-04T20:25:24.473Z,87.36
2019-04-04T20:27:54.922Z,87.42
2019-04-04T20:30:26.459Z,87.79
2019-04-04T20:32:55.055Z,87.84
2019-04-04T20:35:26.701Z,87.80
2019-04-04T20:37:54.223Z,87.92
2019-04-04T20:40:23.399Z,88.21
2019-04-04T20:42:52.470Z,88.32
2019-04-04T20:45:21.149Z,88.17
2019-04-04T20:47:49.818Z,88.32
2019-04-04T20:50:18.612Z,88.19
2019-04-04T20:52:47.177Z,88.30
2019-04-04T20:55:15.777Z,88.32
2019-04-04T20:57:44.882Z,88.34
2019-04-04T21:00:13.759Z,88.50
2019-04-04T21:02:42.353Z,88.63
2019-04-04T21:05:11.344Z,88.83
2019-04-04T21:07:40.239Z,88.80
2019-04-04T21:10:09.427Z,88.67
2019-04-04T21:12:38.010Z,88.79
2019-04-04T21:15:07.692Z,89.06
2019-04-04T21:17:36.338Z,89.30
2019-04-04T21:20:07.450Z,89.22
2019-04-04T21:22:36.049Z,89.03
2019-04-04T21:25:06.157Z,88.98
2019-04-04T21:27:35.062Z,89.03
2019-04-04T21:30:05.484Z,88.91
2019-04-04T21:32:34.067Z,88.96
2019-04-04T21:35:02.755Z,89.09
2019-04-04T21:37:31.334Z,88.96
2019-04-04T21:39:59.912Z,88.92
2019-04-04T21:42:28.500Z,89.16
2019-04-04T21:44:57.081Z,89.64
2019-04-04T21:47:25.623Z,89.38
2019-04-04T21:49:54.663Z,89.46
2019-04-04T21:52:23.243Z,89.75
2019-04-04T21:54:51.837Z,89.70
2019-04-04T21:57:20.713Z,89.79
2019-04-04T21:59:49.299Z,89.96
2019-04-04T22:02:17.885Z,90.05
2019-04-04T22:04:46.568Z,90.28
2019-04-04T22:07:15.355Z,90.19
2019-04-04T22:09:43.946Z,90.14
2019-04-04T22:12:12.835Z,89.99
2019-04-04T22:14:41.576Z,90.17
2019-04-04T22:17:10.206Z,90.15
2019-04-04T22:19:38.951Z,90.30
2019-04-04T22:22:07.679Z,90.67
2019-04-04T22:24:36.371Z,90.73
2019-04-04T22:27:05.154Z,90.61
2019-04-04T22:29:33.747Z,90.68
2019-04-04T22:32:02.738Z,90.81
2019-04-04T22:34:31.834Z,90.68
2019-04-04T22:37:00.515Z,90.75
2019-04-04T22:39:29.201Z,90.81
2019-04-04T22:41:57.784Z,90.87
2019-04-04T22:44:34.555Z,90.83
2019-04-04T22:46:56.695Z,90.79
2019-04-04T22:49:25.379Z,90.89
2019-04-04T22:51:53.965Z,90.80
2019-04-04T22:54:22.559Z,91.14
2019-04-04T22:56:51.541Z,91.08
2019-04-04T22:59:20.090Z,91.09
2019-04-04T23:01:48.710Z,91.23
2019-04-04T23:04:17.398Z,91.05
2019-04-04T23:06:45.981Z,91.01
2019-04-04T23:09:14.583Z,91.03
2019-04-04T23:11:43.250Z,90.96
2019-04-04T23:14:11.788Z,91.20
2019-04-04T23:16:40.419Z,91.25
2019-04-04T23:19:09.327Z,91.18
2019-04-04T23:21:37.893Z,91.14
2019-04-04T23:24:06.488Z,91.26
2019-04-04T23:26:35.067Z,91.18
2019-04-04T23:29:03.646Z,91.15
2019-04-04T23:31:32.227Z,91.17
2019-04-04T23:34:00.814Z,91.18
2019-04-04T23:36:35.284Z,91.21
2019-04-04T23:38:59.723Z,91.49
2019-04-04T23:41:28.511Z,91.40
2019-04-04T23:43:57.401Z,91.30
2019-04-04T23:46:26.088Z,91.23
2019-04-04T23:48:54.778Z,91.15
2019-04-04T23:51:23.309Z,91.24
2019-04-04T23:53:51.946Z,91.26
2019-04-04T23:56:20.557Z,91.19
2019-04-04T23:58:49.117Z,91.26
